Time;durP1;ratioP1;P1;durP2;ratioP2;P2;SDS_P1;SDS_P2;PMS_P1;PMS_P2;Temp;Humidity;BMP_temperature;BMP_pressure;BME280_temperature;BME280_humidity;BME280_pressure;Samples;Min_cycle;Max_cycle;Signal;HPM_P1;HPM_P2
2023/11/02 00:01:00;;;;;;;;;;;14.90;60.80;;;;;;4994100;28;87130;-43
2023/11/02 00:03:30;;;;;;;;;;;15.00;60.80;;;;;;4995250;28;87655;-42
2023/11/02 00:05:56;;;;;;;;;;;14.90;60.70;;;;;;4995080;28;89456;-44
2023/11/02 00:08:23;;;;;;;;;;;14.90;60.70;;;;;;4993284;28;87134;-43
2023/11/02 00:10:49;;;;;;;;;;;14.90;60.70;;;;;;4994354;28;88874;-43
2023/11/02 00:13:26;;;;;;;;;;;14.90;60.60;;;;;;4995714;28;87869;-43
2023/11/02 00:15:53;;;;;;;;;;;14.90;60.60;;;;;;4999060;28;87580;-42
2023/11/02 00:18:18;;;;;;;;;;;15.00;60.70;;;;;;4992748;28;89385;-44
2023/11/02 00:20:44;;;;;;;;;;;14.90;60.50;;;;;;4996696;28;87151;-42
2023/11/02 00:23:11;;;;;;;;;;;14.90;60.60;;;;;;4994526;28;87503;-42
2023/11/02 00:25:45;;;;;;;;;;;14.90;60.60;;;;;;4994915;28;88047;-43
2023/11/02 00:28:10;;;;;;;;;;;14.90;60.60;;;;;;4996280;28;86997;-43
2023/11/02 00:30:36;;;;;;;;;;;14.90;60.70;;;;;;4992725;28;87991;-42
2023/11/02 00:33:02;;;;;;;;;;;14.90;60.70;;;;;;4996045;28;87136;-42
2023/11/02 00:35:27;;;;;;;;;;;14.90;60.60;;;;;;4993976;28;87074;-42
2023/11/02 00:37:53;;;;;;;;;;;14.90;60.70;;;;;;4997832;28;87355;-42
2023/11/02 00:40:19;;;;;;;;;;;14.80;60.60;;;;;;4994196;28;87248;-43
2023/11/02 00:42:46;;;;;;;;;;;14.80;60.60;;;;;;4993769;28;88692;-42
2023/11/02 00:45:11;;;;;;;;;;;14.90;60.60;;;;;;4995579;28;87029;-42
2023/11/02 00:47:36;;;;;;;;;;;14.90;60.50;;;;;;4993463;28;86474;-42
2023/11/02 00:50:02;;;;;;;;;;;14.80;60.50;;;;;;4996210;28;87098;-42
2023/11/02 00:52:28;;;;;;;;;;;14.80;60.50;;;;;;4993033;28;88294;-43
2023/11/02 00:54:55;;;;;;;;;;;14.80;60.50;;;;;;4994309;28;88090;-42
2023/11/02 00:57:23;;;;;;;;;;;14.80;60.60;;;;;;4993861;28;88575;-42
2023/11/02 00:59:51;;;;;;;;;;;14.80;60.50;;;;;;4995722;28;87927;-42
2023/11/02 01:02:17;;;;;;;;;;;14.80;61.10;;;;;;4995966;28;87374;-42
2023/11/02 01:04:43;;;;;;;;;;;14.80;60.60;;;;;;4992556;28;89120;-42
2023/11/02 01:07:12;;;;;;;;;;;14.80;60.60;;;;;;4995013;28;87154;-42
2023/11/02 01:09:40;;;;;;;;;;;14.80;60.60;;;;;;4992786;28;87368;-42
2023/11/02 01:12:06;;;;;;;;;;;14.80;60.60;;;;;;4992702;28;87173;-42
2023/11/02 01:14:44;;;;;;;;;;;14.70;60.60;;;;;;4996388;28;87201;-43
2023/11/02 01:17:17;;;;;;;;;;;14.80;60.70;;;;;;4994368;28;87161;-42
2023/11/02 01:19:52;;;;;;;;;;;14.80;60.60;;;;;;4991202;28;90235;-42
2023/11/02 01:22:29;;;;;;;;;;;14.70;60.60;;;;;;4996481;28;87002;-43
2023/11/02 01:25:00;;;;;;;;;;;14.70;60.60;;;;;;4992054;28;88290;-42
2023/11/02 01:27:27;;;;;;;;;;;14.70;60.70;;;;;;4994841;28;87468;-44
2023/11/02 01:29:53;;;;;;;;;;;14.70;60.70;;;;;;4993797;28;87056;-42
2023/11/02 01:32:18;;;;;;;;;;;14.70;60.70;;;;;;4993198;28;87211;-43
2023/11/02 01:34:44;;;;;;;;;;;14.70;60.70;;;;;;4994440;28;87139;-44
2023/11/02 01:37:10;;;;;;;;;;;14.70;60.70;;;;;;4992953;28;87417;-43
2023/11/02 01:39:51;;;;;;;;;;;14.70;60.70;;;;;;4995142;28;88006;-42
2023/11/02 01:42:19;;;;;;;;;;;14.70;60.70;;;;;;4994955;28;87015;-42
2023/11/02 01:45:15;;;;;;;;;;;14.70;60.70;;;;;;4994014;28;88800;-43
2023/11/02 01:47:46;;;;;;;;;;;14.60;60.80;;;;;;4985954;28;87038;-42
2023/11/02 01:50:14;;;;;;;;;;;14.60;60.70;;;;;;4993400;28;87100;-43
2023/11/02 01:52:51;;;;;;;;;;;14.60;60.80;;;;;;4992018;28;88103;-43
2023/11/02 01:55:36;;;;;;;;;;;14.60;60.80;;;;;;4992468;28;87207;-42
2023/11/02 02:01:04;;;;;;;;;;;14.60;60.90;;;;;;4990007;28;87275;-42
2023/11/02 02:03:36;;;;;;;;;;;14.60;60.80;;;;;;4993650;28;86265;-42
2023/11/02 02:06:08;;;;;;;;;;;14.60;60.90;;;;;;4997718;28;87054;-42
2023/11/02 02:08:54;;;;;;;;;;;14.60;60.90;;;;;;4992433;28;87024;-43
2023/11/02 02:11:39;;;;;;;;;;;14.50;60.90;;;;;;4991391;28;88276;-42
2023/11/02 02:14:14;;;;;;;;;;;14.50;60.90;;;;;;4994663;28;88131;-42
2023/11/02 02:16:51;;;;;;;;;;;14.50;60.80;;;;;;4992941;28;87145;-43
2023/11/02 02:19:20;;;;;;;;;;;14.50;61.00;;;;;;4991383;28;87841;-42
2023/11/02 02:21:53;;;;;;;;;;;14.50;60.90;;;;;;4993384;28;87376;-44
2023/11/02 02:24:31;;;;;;;;;;;14.50;60.90;;;;;;4993768;28;87103;-44
2023/11/02 02:27:09;;;;;;;;;;;14.50;61.00;;;;;;4990805;28;87330;-42
2023/11/02 02:29:43;;;;;;;;;;;14.50;60.90;;;;;;4995032;28;87473;-42
2023/11/02 02:32:14;;;;;;;;;;;14.50;60.90;;;;;;4991978;28;87182;-42
2023/11/02 02:34:58;;;;;;;;;;;14.50;60.90;;;;;;4992291;28;88171;-43
2023/11/02 02:37:31;;;;;;;;;;;14.50;61.00;;;;;;4991637;28;88063;-42
2023/11/02 02:40:06;;;;;;;;;;;14.40;61.00;;;;;;4991657;28;88572;-44
2023/11/02 02:42:36;;;;;;;;;;;14.40;61.00;;;;;;4992983;28;89239;-42
2023/11/02 02:45:07;;;;;;;;;;;14.40;61.10;;;;;;4992578;28;87104;-42
2023/11/02 02:47:33;;;;;;;;;;;14.40;61.00;;;;;;4990969;28;88890;-43
2023/11/02 02:50:01;;;;;;;;;;;14.40;61.00;;;;;;4993883;28;89115;-42
2023/11/02 02:52:28;;;;;;;;;;;14.40;61.00;;;;;;4993947;28;87097;-42
2023/11/02 02:54:54;;;;;;;;;;;14.40;61.00;;;;;;4993143;28;88374;-42
2023/11/02 02:57:20;;;;;;;;;;;14.40;61.10;;;;;;4992799;28;87219;-42
2023/11/02 02:59:49;;;;;;;;;;;14.40;61.00;;;;;;4990836;28;86997;-45
2023/11/02 03:02:16;;;;;;;;;;;14.40;61.10;;;;;;4989532;28;88974;-42
2023/11/02 03:04:43;;;;;;;;;;;14.40;61.00;;;;;;4990661;28;87130;-42
2023/11/02 03:07:09;;;;;;;;;;;14.40;61.10;;;;;;4993223;28;87356;-43
2023/11/02 03:09:38;;;;;;;;;;;14.40;61.10;;;;;;4991830;28;87238;-43
2023/11/02 03:12:04;;;;;;;;;;;14.40;61.10;;;;;;4991505;28;87137;-43
2023/11/02 03:14:33;;;;;;;;;;;14.30;61.00;;;;;;4995902;28;87248;-42
2023/11/02 03:17:03;;;;;;;;;;;14.30;61.10;;;;;;4990670;28;87108;-42
2023/11/02 03:19:34;;;;;;;;;;;14.40;61.10;;;;;;4992877;28;87450;-43
2023/11/02 03:22:02;;;;;;;;;;;14.30;61.20;;;;;;4993032;28;88432;-43
2023/11/02 03:24:37;;;;;;;;;;;14.30;61.10;;;;;;4990431;28;87118;-42
2023/11/02 03:27:06;;;;;;;;;;;14.30;61.20;;;;;;4991888;28;88057;-44
2023/11/02 03:32:27;;;;;;;;;;;14.30;61.00;;;;;;4992189;28;86986;-43
2023/11/02 03:34:57;;;;;;;;;;;14.30;61.20;;;;;;4990343;28;87650;-42
2023/11/02 03:37:35;;;;;;;;;;;14.30;61.20;;;;;;4995260;28;88130;-42
2023/11/02 03:40:07;;;;;;;;;;;14.30;61.10;;;;;;4993419;28;87511;-42
2023/11/02 03:42:48;;;;;;;;;;;14.30;61.20;;;;;;4990764;28;88022;-43
2023/11/02 03:45:22;;;;;;;;;;;14.30;61.20;;;;;;4991712;28;88241;-42
2023/11/02 03:47:48;;;;;;;;;;;14.30;61.20;;;;;;4991452;28;86989;-42
2023/11/02 03:50:32;;;;;;;;;;;14.20;61.20;;;;;;4991602;28;88480;-42
2023/11/02 03:53:05;;;;;;;;;;;14.30;61.20;;;;;;4990271;28;88372;-43
2023/11/02 03:55:33;;;;;;;;;;;14.20;61.20;;;;;;4991323;28;88263;-43
2023/11/02 03:58:02;;;;;;;;;;;14.20;61.30;;;;;;4993125;28;87954;-42
2023/11/02 04:00:31;;;;;;;;;;;14.20;61.20;;;;;;4993045;28;87429;-44
2023/11/02 04:02:59;;;;;;;;;;;14.20;61.20;;;;;;4991809;28;88195;-42
2023/11/02 04:05:29;;;;;;;;;;;14.20;61.30;;;;;;4992226;28;87128;-42
2023/11/02 04:08:16;;;;;;;;;;;14.20;61.30;;;;;;4990012;28;87412;-42
2023/11/02 04:10:59;;;;;;;;;;;14.20;61.30;;;;;;4992817;28;86999;-42
2023/11/02 04:13:31;;;;;;;;;;;14.20;61.40;;;;;;4992005;28;87149;-42
2023/11/02 04:15:56;;;;;;;;;;;14.20;61.50;;;;;;4991506;28;87457;-42
2023/11/02 04:18:22;;;;;;;;;;;14.20;61.40;;;;;;4992328;28;89459;-43
2023/11/02 04:20:51;;;;;;;;;;;14.20;61.50;;;;;;4993228;28;87161;-43
2023/11/02 04:23:21;;;;;;;;;;;14.20;61.40;;;;;;4991171;28;88069;-42
2023/11/02 04:25:46;;;;;;;;;;;14.10;61.40;;;;;;4992600;28;87066;-42
2023/11/02 04:28:12;;;;;;;;;;;14.10;61.40;;;;;;4989856;28;88804;-42
2023/11/02 04:30:38;;;;;;;;;;;14.10;61.30;;;;;;4991468;28;88096;-43
2023/11/02 04:33:03;;;;;;;;;;;14.10;61.40;;;;;;4992944;28;87240;-42
2023/11/02 04:35:29;;;;;;;;;;;14.10;61.40;;;;;;4990821;28;88804;-42
2023/11/02 04:38:08;;;;;;;;;;;14.10;61.40;;;;;;4991314;28;87966;-42
2023/11/02 04:40:33;;;;;;;;;;;14.10;61.40;;;;;;4992873;28;87181;-43
2023/11/02 04:43:00;;;;;;;;;;;14.10;61.40;;;;;;4991850;28;87933;-43
2023/11/02 04:45:25;;;;;;;;;;;14.10;61.40;;;;;;4994091;28;87121;-43
2023/11/02 04:47:51;;;;;;;;;;;14.00;61.40;;;;;;4994560;28;87242;-44
2023/11/02 04:50:16;;;;;;;;;;;14.10;62.00;;;;;;4993894;28;88212;-42
2023/11/02 04:52:42;;;;;;;;;;;14.10;61.40;;;;;;4995066;28;87099;-43
2023/11/02 04:55:07;;;;;;;;;;;14.10;61.40;;;;;;4993082;28;88298;-42
2023/11/02 04:57:33;;;;;;;;;;;14.10;61.50;;;;;;4995728;28;88191;-41
2023/11/02 05:00:01;;;;;;;;;;;14.10;61.50;;;;;;4995844;28;86359;-43
2023/11/02 05:02:27;;;;;;;;;;;14.00;61.50;;;;;;4993758;28;87386;-42
2023/11/02 05:04:52;;;;;;;;;;;14.00;61.50;;;;;;4996882;28;89672;-42
2023/11/02 05:07:18;;;;;;;;;;;14.00;61.50;;;;;;4994252;28;88155;-43
2023/11/02 05:09:43;;;;;;;;;;;14.00;61.40;;;;;;4992114;28;89333;-43
2023/11/02 05:12:09;;;;;;;;;;;14.00;61.60;;;;;;4991965;28;88029;-42
2023/11/02 05:14:34;;;;;;;;;;;14.00;61.60;;;;;;4992019;28;87613;-42
2023/11/02 05:17:00;;;;;;;;;;;14.00;61.60;;;;;;4992493;28;88276;-42
2023/11/02 05:19:25;;;;;;;;;;;14.00;61.60;;;;;;4994232;28;87192;-44
2023/11/02 05:21:51;;;;;;;;;;;14.00;61.60;;;;;;4992572;28;88296;-42
2023/11/02 05:24:16;;;;;;;;;;;14.00;61.70;;;;;;4992555;28;87452;-42
2023/11/02 05:26:42;;;;;;;;;;;14.00;61.70;;;;;;4994869;28;87169;-42
2023/11/02 05:29:07;;;;;;;;;;;13.90;61.50;;;;;;4995373;28;88449;-42
2023/11/02 05:31:33;;;;;;;;;;;14.00;61.70;;;;;;4985910;28;88631;-43
2023/11/02 05:33:58;;;;;;;;;;;14.00;61.60;;;;;;4992007;28;88368;-43
2023/11/02 05:36:25;;;;;;;;;;;13.90;61.60;;;;;;4992443;28;88041;-43
2023/11/02 05:38:51;;;;;;;;;;;13.90;61.70;;;;;;4993977;28;87161;-43
2023/11/02 05:41:17;;;;;;;;;;;13.90;61.60;;;;;;4989834;28;87567;-42
2023/11/02 05:43:42;;;;;;;;;;;14.00;61.60;;;;;;4990680;28;88274;-42
2023/11/02 05:46:08;;;;;;;;;;;14.00;61.60;;;;;;4994906;28;87463;-43
2023/11/02 05:48:33;;;;;;;;;;;13.90;61.60;;;;;;4998609;28;87580;-43
2023/11/02 05:50:59;;;;;;;;;;;13.90;61.60;;;;;;4990250;28;87487;-42
2023/11/02 05:53:24;;;;;;;;;;;13.90;61.60;;;;;;4988480;28;88515;-42
2023/11/02 05:55:50;;;;;;;;;;;13.90;61.60;;;;;;4991115;28;89175;-42
2023/11/02 05:58:15;;;;;;;;;;;13.90;61.70;;;;;;4994673;28;87176;-42
2023/11/02 06:00:41;;;;;;;;;;;13.90;61.60;;;;;;4987982;28;88779;-42
2023/11/02 06:03:06;;;;;;;;;;;13.90;61.60;;;;;;4988964;28;88033;-43
2023/11/02 06:05:32;;;;;;;;;;;13.90;61.70;;;;;;4994933;28;87433;-42
2023/11/02 06:07:57;;;;;;;;;;;13.90;61.80;;;;;;4992347;28;88889;-42
2023/11/02 06:10:22;;;;;;;;;;;13.90;61.80;;;;;;4990360;28;88196;-42
2023/11/02 06:12:48;;;;;;;;;;;13.90;61.80;;;;;;4989098;28;87201;-42
2023/11/02 06:15:13;;;;;;;;;;;13.90;61.80;;;;;;4992312;28;88250;-42
2023/11/02 06:17:39;;;;;;;;;;;13.90;61.80;;;;;;4992949;28;87097;-42
2023/11/02 06:20:06;;;;;;;;;;;13.80;61.80;;;;;;4991358;28;88356;-43
2023/11/02 06:22:32;;;;;;;;;;;13.80;61.80;;;;;;4986574;28;89361;-42
2023/11/02 06:24:57;;;;;;;;;;;13.90;61.70;;;;;;4991037;28;87103;-42
2023/11/02 06:27:23;;;;;;;;;;;13.80;61.80;;;;;;4996238;28;87441;-42
2023/11/02 06:29:49;;;;;;;;;;;13.80;61.70;;;;;;4996325;28;88986;-44
2023/11/02 06:32:15;;;;;;;;;;;13.80;61.80;;;;;;4990154;28;88818;-42
2023/11/02 06:34:40;;;;;;;;;;;13.80;61.80;;;;;;4992465;28;88245;-42
2023/11/02 06:37:11;;;;;;;;;;;13.80;61.80;;;;;;4994274;28;86472;-42
2023/11/02 06:39:37;;;;;;;;;;;13.80;61.80;;;;;;4988596;28;87112;-44
2023/11/02 06:42:06;;;;;;;;;;;13.90;61.80;;;;;;4989161;28;87329;-42
2023/11/02 06:44:31;;;;;;;;;;;13.80;61.80;;;;;;4992586;28;88052;-43
2023/11/02 06:46:57;;;;;;;;;;;13.80;61.80;;;;;;4992367;28;88112;-43
2023/11/02 06:49:23;;;;;;;;;;;13.80;61.80;;;;;;4991367;28;89479;-42
2023/11/02 06:51:49;;;;;;;;;;;13.80;61.80;;;;;;4993018;28;87084;-42
2023/11/02 06:54:15;;;;;;;;;;;13.80;61.90;;;;;;4994011;28;87134;-43
2023/11/02 06:56:40;;;;;;;;;;;13.80;61.80;;;;;;4990868;28;87209;-42
2023/11/02 06:59:06;;;;;;;;;;;13.80;61.80;;;;;;4992748;28;87739;-44
2023/11/02 07:01:33;;;;;;;;;;;13.80;61.90;;;;;;4990678;28;87289;-42
2023/11/02 07:03:59;;;;;;;;;;;13.80;62.50;;;;;;4992041;28;87183;-42
2023/11/02 07:06:25;;;;;;;;;;;13.80;61.90;;;;;;4991373;28;87334;-43
2023/11/02 07:08:50;;;;;;;;;;;13.80;61.90;;;;;;4987898;28;89001;-43
2023/11/02 07:11:16;;;;;;;;;;;13.80;62.00;;;;;;4990537;28;87248;-43
2023/11/02 07:13:41;;;;;;;;;;;13.80;62.10;;;;;;4992826;28;87239;-42
2023/11/02 07:16:07;;;;;;;;;;;13.70;62.00;;;;;;4989747;28;87338;-42
2023/11/02 07:18:33;;;;;;;;;;;13.70;62.00;;;;;;4989401;28;87324;-42
2023/11/02 07:20:58;;;;;;;;;;;13.70;62.00;;;;;;4992174;28;87009;-42
2023/11/02 07:23:24;;;;;;;;;;;13.70;62.00;;;;;;4990536;28;87645;-42
2023/11/02 07:25:49;;;;;;;;;;;13.70;62.10;;;;;;4991580;28;86867;-42
2023/11/02 07:28:15;;;;;;;;;;;13.70;62.00;;;;;;4992974;28;87742;-42
2023/11/02 07:30:40;;;;;;;;;;;13.70;62.10;;;;;;4989700;28;87132;-42
2023/11/02 07:33:07;;;;;;;;;;;13.70;62.10;;;;;;4990578;28;88834;-43
2023/11/02 07:35:33;;;;;;;;;;;13.70;62.20;;;;;;4989038;28;89240;-43
2023/11/02 07:37:59;;;;;;;;;;;13.70;62.10;;;;;;4990165;28;87834;-43
2023/11/02 07:40:24;;;;;;;;;;;13.70;62.20;;;;;;4991082;28;89507;-43
2023/11/02 07:42:50;;;;;;;;;;;13.70;62.20;;;;;;4989366;28;88903;-43
2023/11/02 07:45:15;;;;;;;;;;;13.70;62.30;;;;;;4987898;28;87501;-42
2023/11/02 07:47:41;;;;;;;;;;;13.70;62.40;;;;;;4990048;28;88001;-43
2023/11/02 07:50:07;;;;;;;;;;;13.70;62.30;;;;;;4993719;28;86425;-42
2023/11/02 07:52:32;;;;;;;;;;;13.70;62.30;;;;;;4987329;28;87263;-42
2023/11/02 07:54:58;;;;;;;;;;;13.70;62.50;;;;;;4987384;28;87921;-42
2023/11/02 07:57:24;;;;;;;;;;;13.70;62.60;;;;;;4993449;28;88093;-42
2023/11/02 07:59:50;;;;;;;;;;;13.70;62.50;;;;;;4991128;28;88167;-43
2023/11/02 08:02:16;;;;;;;;;;;13.70;62.60;;;;;;4989817;28;87200;-42
2023/11/02 08:04:41;;;;;;;;;;;13.70;62.60;;;;;;4990197;28;88441;-42
2023/11/02 08:07:07;;;;;;;;;;;13.70;62.50;;;;;;4992688;28;88129;-43
2023/11/02 08:09:37;;;;;;;;;;;13.70;62.60;;;;;;4991329;28;88971;-42
2023/11/02 08:12:08;;;;;;;;;;;13.70;62.40;;;;;;4990611;28;88847;-43
2023/11/02 08:14:34;;;;;;;;;;;13.60;62.40;;;;;;4991376;28;87268;-42
2023/11/02 08:17:00;;;;;;;;;;;13.60;62.60;;;;;;4987829;28;88880;-43
2023/11/02 08:19:26;;;;;;;;;;;13.70;62.60;;;;;;4995008;28;86974;-42
2023/11/02 08:21:51;;;;;;;;;;;13.60;62.60;;;;;;4994077;28;88101;-44
2023/11/02 08:24:17;;;;;;;;;;;13.70;62.60;;;;;;4995173;28;88318;-42
2023/11/02 08:26:42;;;;;;;;;;;13.70;62.50;;;;;;4989071;28;88263;-43
2023/11/02 08:29:08;;;;;;;;;;;13.70;62.40;;;;;;4992668;28;87156;-42
2023/11/02 08:31:33;;;;;;;;;;;13.70;62.60;;;;;;4995786;28;87643;-42
2023/11/02 08:34:02;;;;;;;;;;;13.70;62.60;;;;;;4992667;28;88104;-42
2023/11/02 08:36:28;;;;;;;;;;;13.70;62.60;;;;;;4992115;28;87237;-44
2023/11/02 08:38:54;;;;;;;;;;;13.70;62.50;;;;;;4995598;28;87140;-42
2023/11/02 08:41:21;;;;;;;;;;;13.70;62.40;;;;;;4991938;28;87193;-42
2023/11/02 08:43:47;;;;;;;;;;;13.70;62.40;;;;;;4993618;28;87135;-42
2023/11/02 08:46:17;;;;;;;;;;;13.70;62.40;;;;;;4993934;28;90576;-42
2023/11/02 08:48:46;;;;;;;;;;;13.70;63.10;;;;;;4993036;28;87120;-44
2023/11/02 08:51:13;;;;;;;;;;;13.70;62.40;;;;;;4993166;28;87169;-43
2023/11/02 08:53:39;;;;;;;;;;;13.70;62.40;;;;;;4991267;28;87275;-42
2023/11/02 08:56:09;;;;;;;;;;;13.70;62.50;;;;;;4992476;28;87182;-42
2023/11/02 08:58:44;;;;;;;;;;;13.70;62.50;;;;;;4993276;28;87737;-42
2023/11/02 09:01:10;;;;;;;;;;;13.70;62.40;;;;;;4994244;28;88438;-42
2023/11/02 09:03:39;;;;;;;;;;;13.70;62.40;;;;;;4992536;28;87435;-44
2023/11/02 09:06:05;;;;;;;;;;;13.70;62.30;;;;;;4990982;28;88120;-44
2023/11/02 09:08:32;;;;;;;;;;;13.70;62.50;;;;;;4994924;28;87131;-42
2023/11/02 09:10:57;;;;;;;;;;;13.70;62.40;;;;;;4992246;28;88763;-43
2023/11/02 09:13:23;;;;;;;;;;;13.70;62.50;;;;;;4992419;28;88280;-42
2023/11/02 09:15:48;;;;;;;;;;;13.70;62.40;;;;;;4992123;28;87061;-42
2023/11/02 09:18:14;;;;;;;;;;;13.70;62.40;;;;;;4995460;28;89158;-42
2023/11/02 09:20:39;;;;;;;;;;;13.70;62.50;;;;;;4991759;28;88072;-42
2023/11/02 09:23:05;;;;;;;;;;;13.70;62.40;;;;;;4992356;28;87216;-42
2023/11/02 09:25:30;;;;;;;;;;;13.70;62.40;;;;;;4983629;28;89663;-42
2023/11/02 09:27:55;;;;;;;;;;;13.70;62.30;;;;;;4994294;28;87078;-42
2023/11/02 09:30:21;;;;;;;;;;;13.70;62.60;;;;;;4989512;28;88138;-44
2023/11/02 09:32:47;;;;;;;;;;;13.70;62.50;;;;;;4988442;28;89422;-42
2023/11/02 09:35:13;;;;;;;;;;;13.70;62.60;;;;;;4993861;28;88152;-43
2023/11/02 09:37:38;;;;;;;;;;;13.70;62.70;;;;;;4992401;28;88327;-43
2023/11/02 09:40:06;;;;;;;;;;;13.70;62.70;;;;;;4989181;28;88740;-43
2023/11/02 09:42:32;;;;;;;;;;;13.70;62.40;;;;;;4988121;28;87186;-43
2023/11/02 09:44:58;;;;;;;;;;;13.70;62.60;;;;;;4997219;28;87088;-42
2023/11/02 09:47:24;;;;;;;;;;;13.70;62.70;;;;;;4988284;28;87358;-42
2023/11/02 09:49:49;;;;;;;;;;;13.70;62.80;;;;;;4990444;28;87328;-42
2023/11/02 09:52:15;;;;;;;;;;;13.70;62.80;;;;;;4990941;28;87481;-42
2023/11/02 09:54:40;;;;;;;;;;;13.70;62.70;;;;;;4994469;28;87097;-43
2023/11/02 09:57:06;;;;;;;;;;;13.70;62.70;;;;;;4994567;28;89009;-45
2023/11/02 09:59:32;;;;;;;;;;;13.70;62.70;;;;;;4986618;28;89116;-43
2023/11/02 10:01:58;;;;;;;;;;;13.70;62.70;;;;;;4994382;28;87110;-44
2023/11/02 10:04:24;;;;;;;;;;;13.70;62.90;;;;;;4992361;28;87488;-42
2023/11/02 10:06:49;;;;;;;;;;;13.70;62.70;;;;;;4992268;28;88215;-43
2023/11/02 10:09:15;;;;;;;;;;;13.70;62.60;;;;;;4989811;28;87946;-43
2023/11/02 10:11:41;;;;;;;;;;;13.70;62.90;;;;;;4991259;28;89021;-43
2023/11/02 10:14:06;;;;;;;;;;;13.80;63.00;;;;;;4994384;28;87595;-42
2023/11/02 10:16:32;;;;;;;;;;;13.80;62.90;;;;;;4990362;28;87514;-42
2023/11/02 10:18:58;;;;;;;;;;;13.70;62.70;;;;;;4990621;28;87205;-43
2023/11/02 10:21:23;;;;;;;;;;;13.80;62.60;;;;;;4993520;28;87208;-43
2023/11/02 10:23:55;;;;;;;;;;;13.80;62.70;;;;;;4992675;28;88674;-43
2023/11/02 10:26:22;;;;;;;;;;;13.80;63.00;;;;;;4992607;28;89646;-42
2023/11/02 10:28:50;;;;;;;;;;;13.80;62.90;;;;;;4993920;28;87497;-43
2023/11/02 10:31:20;;;;;;;;;;;13.80;63.00;;;;;;4992601;28;89332;-43
2023/11/02 10:33:49;;;;;;;;;;;13.80;62.90;;;;;;4986694;28;87131;-43
2023/11/02 10:36:16;;;;;;;;;;;13.80;62.90;;;;;;4993474;28;88838;-43
2023/11/02 10:38:43;;;;;;;;;;;13.70;63.20;;;;;;4991074;28;87819;-44
2023/11/02 10:41:12;;;;;;;;;;;13.80;63.30;;;;;;4992863;28;86417;-42
2023/11/02 10:43:38;;;;;;;;;;;13.80;63.10;;;;;;4989351;28;88263;-42
2023/11/02 10:46:04;;;;;;;;;;;13.80;63.20;;;;;;4988827;28;88412;-42
2023/11/02 10:48:34;;;;;;;;;;;13.70;63.20;;;;;;4996022;28;88079;-43
2023/11/02 10:51:02;;;;;;;;;;;13.80;63.50;;;;;;4989534;28;87999;-44
2023/11/02 10:53:49;;;;;;;;;;;13.80;63.20;;;;;;4988771;28;87824;-42
2023/11/02 10:56:20;;;;;;;;;;;13.70;63.20;;;;;;4991280;28;87382;-43
2023/11/02 10:58:47;;;;;;;;;;;13.70;63.60;;;;;;4993740;28;88684;-43
2023/11/02 11:01:13;;;;;;;;;;;13.70;63.30;;;;;;4991926;28;87106;-42
2023/11/02 11:03:39;;;;;;;;;;;13.70;63.70;;;;;;4993896;28;88042;-42
2023/11/02 11:06:04;;;;;;;;;;;13.70;63.70;;;;;;4994653;28;87489;-43
2023/11/02 11:08:31;;;;;;;;;;;13.80;63.60;;;;;;4991009;28;87179;-42
2023/11/02 11:10:58;;;;;;;;;;;13.80;63.40;;;;;;4992282;28;87524;-42
2023/11/02 11:13:25;;;;;;;;;;;13.80;63.50;;;;;;4988252;28;88136;-43
2023/11/02 11:15:51;;;;;;;;;;;13.80;63.40;;;;;;4990760;28;87388;-44
2023/11/02 11:18:17;;;;;;;;;;;13.80;63.20;;;;;;4991567;28;87988;-43
2023/11/02 11:20:43;;;;;;;;;;;13.80;63.30;;;;;;4990704;28;89080;-43
2023/11/02 11:23:09;;;;;;;;;;;13.80;63.40;;;;;;4987780;28;87752;-42
2023/11/02 11:25:55;;;;;;;;;;;13.80;63.50;;;;;;4992634;28;89507;-43
2023/11/02 11:28:30;;;;;;;;;;;13.80;63.70;;;;;;4990811;28;88007;-43
2023/11/02 11:30:55;;;;;;;;;;;13.80;63.80;;;;;;4988628;28;87317;-42
2023/11/02 11:33:39;;;;;;;;;;;13.80;63.80;;;;;;4992139;28;88074;-43
2023/11/02 11:36:24;;;;;;;;;;;13.80;63.70;;;;;;4992098;28;87583;-42
2023/11/02 11:38:50;;;;;;;;;;;13.80;64.00;;;;;;4987287;28;90138;-42
2023/11/02 11:41:34;;;;;;;;;;;13.80;64.00;;;;;;4988632;28;87102;-43
2023/11/02 11:44:07;;;;;;;;;;;13.80;63.90;;;;;;4991072;28;87437;-43
2023/11/02 11:46:42;;;;;;;;;;;13.80;64.00;;;;;;4990197;28;89032;-43
2023/11/02 11:49:27;;;;;;;;;;;13.80;64.00;;;;;;4985901;28;87706;-42
2023/11/02 11:51:53;;;;;;;;;;;13.80;64.00;;;;;;4987971;28;87274;-42
2023/11/02 11:54:25;;;;;;;;;;;13.90;64.00;;;;;;4994739;28;87462;-43
2023/11/02 11:56:50;;;;;;;;;;;13.80;64.20;;;;;;4997656;28;88256;-43
2023/11/02 11:59:17;;;;;;;;;;;13.80;64.40;;;;;;4994356;28;88182;-42
2023/11/02 12:01:43;;;;;;;;;;;13.80;64.30;;;;;;4993038;28;87479;-43
2023/11/02 12:04:09;;;;;;;;;;;13.80;64.40;;;;;;4996125;28;88475;-42
2023/11/02 12:06:43;;;;;;;;;;;13.80;64.10;;;;;;4992353;28;89279;-42
2023/11/02 12:09:18;;;;;;;;;;;13.90;64.20;;;;;;4988584;28;87127;-42
2023/11/02 12:11:44;;;;;;;;;;;13.90;64.20;;;;;;4996730;28;89020;-42
2023/11/02 12:14:18;;;;;;;;;;;13.90;64.10;;;;;;4992383;28;89472;-43
2023/11/02 12:16:45;;;;;;;;;;;13.90;64.00;;;;;;4990765;28;87875;-42
2023/11/02 12:19:11;;;;;;;;;;;13.90;63.80;;;;;;4994772;28;87432;-43
2023/11/02 12:21:38;;;;;;;;;;;13.90;63.90;;;;;;4996909;28;86353;-42
2023/11/02 12:24:10;;;;;;;;;;;13.90;64.00;;;;;;4992901;28;86977;-43
2023/11/02 12:26:36;;;;;;;;;;;13.90;64.00;;;;;;4992643;28;89528;-43
2023/11/02 12:29:11;;;;;;;;;;;13.90;63.90;;;;;;4991666;28;88154;-42
2023/11/02 12:31:38;;;;;;;;;;;13.90;64.00;;;;;;4993018;28;88344;-42
2023/11/02 12:34:08;;;;;;;;;;;13.90;63.90;;;;;;4995237;28;87197;-43
2023/11/02 12:36:35;;;;;;;;;;;13.90;63.90;;;;;;4989503;28;87152;-44
2023/11/02 12:39:07;;;;;;;;;;;13.90;63.80;;;;;;4995343;28;88337;-42
2023/11/02 12:41:33;;;;;;;;;;;13.90;64.00;;;;;;4992869;28;87078;-42
2023/11/02 12:43:59;;;;;;;;;;;13.90;64.00;;;;;;4994810;28;87137;-43
2023/11/02 12:46:24;;;;;;;;;;;13.90;64.00;;;;;;4990261;28;88864;-42
2023/11/02 12:48:50;;;;;;;;;;;13.90;63.90;;;;;;4994514;28;87100;-44
2023/11/02 12:51:15;;;;;;;;;;;13.90;64.00;;;;;;4994197;28;87549;-42
2023/11/02 12:53:42;;;;;;;;;;;13.90;64.00;;;;;;4992222;28;89791;-43
2023/11/02 12:56:08;;;;;;;;;;;13.90;63.90;;;;;;4993411;28;87088;-43
2023/11/02 12:58:35;;;;;;;;;;;13.90;64.00;;;;;;4992604;28;88326;-42
2023/11/02 13:01:01;;;;;;;;;;;13.90;64.00;;;;;;4997574;28;87943;-43
2023/11/02 13:03:27;;;;;;;;;;;13.90;64.00;;;;;;4991507;28;89421;-42
2023/11/02 13:05:53;;;;;;;;;;;13.90;64.00;;;;;;4990602;28;87982;-43
2023/11/02 13:08:21;;;;;;;;;;;13.90;64.10;;;;;;4993641;28;87544;-43
2023/11/02 13:10:50;;;;;;;;;;;13.90;64.00;;;;;;4996247;28;87548;-43
2023/11/02 13:13:16;;;;;;;;;;;13.90;63.90;;;;;;4991882;28;87636;-43
2023/11/02 13:15:42;;;;;;;;;;;14.00;63.90;;;;;;4991062;28;87185;-43
2023/11/02 13:18:09;;;;;;;;;;;13.90;63.80;;;;;;4993535;28;88868;-44
2023/11/02 13:20:35;;;;;;;;;;;14.00;64.00;;;;;;4996849;28;91166;-43
2023/11/02 13:23:01;;;;;;;;;;;14.00;64.00;;;;;;4995606;28;87146;-44
2023/11/02 13:25:27;;;;;;;;;;;14.00;64.10;;;;;;4991867;28;87155;-43
2023/11/02 13:27:55;;;;;;;;;;;14.00;64.00;;;;;;4992295;28;87153;-43
2023/11/02 13:30:20;;;;;;;;;;;14.00;64.00;;;;;;4988736;28;87539;-42
2023/11/02 13:32:46;;;;;;;;;;;14.00;64.50;;;;;;4989520;28;88087;-43
2023/11/02 13:35:12;;;;;;;;;;;14.00;63.90;;;;;;4992168;28;86681;-43
2023/11/02 13:37:38;;;;;;;;;;;14.00;64.00;;;;;;4994416;28;87175;-43
2023/11/02 13:40:09;;;;;;;;;;;14.00;63.90;;;;;;4992868;28;88013;-42
2023/11/02 13:42:35;;;;;;;;;;;14.00;64.20;;;;;;4985798;28;88600;-43
2023/11/02 13:45:01;;;;;;;;;;;14.00;64.10;;;;;;4996852;28;88341;-43
2023/11/02 13:47:26;;;;;;;;;;;14.10;63.80;;;;;;4990761;28;87091;-43
2023/11/02 13:49:52;;;;;;;;;;;14.00;63.90;;;;;;4986326;28;87943;-43
2023/11/02 13:52:17;;;;;;;;;;;14.10;64.10;;;;;;4994955;28;89181;-44
2023/11/02 13:54:43;;;;;;;;;;;14.00;64.00;;;;;;4992114;28;87233;-43
2023/11/02 13:57:09;;;;;;;;;;;14.10;64.00;;;;;;4991762;28;87408;-43
2023/11/02 13:59:34;;;;;;;;;;;14.00;64.00;;;;;;4988656;28;86449;-43
2023/11/02 14:02:00;;;;;;;;;;;14.10;64.10;;;;;;4990188;28;87098;-42
2023/11/02 14:04:25;;;;;;;;;;;14.00;63.90;;;;;;4993924;28;87399;-43
2023/11/02 14:06:53;;;;;;;;;;;14.00;63.90;;;;;;4991164;28;88176;-43
2023/11/02 14:09:19;;;;;;;;;;;14.10;63.90;;;;;;4994000;28;91412;-43
2023/11/02 14:11:44;;;;;;;;;;;14.10;64.10;;;;;;4991212;28;88174;-43
2023/11/02 14:14:10;;;;;;;;;;;14.00;64.10;;;;;;4991544;28;87556;-42
2023/11/02 14:16:35;;;;;;;;;;;14.10;64.10;;;;;;4993417;28;87911;-43
2023/11/02 14:19:01;;;;;;;;;;;14.10;63.90;;;;;;4990323;28;88206;-43
2023/11/02 14:21:27;;;;;;;;;;;14.10;64.10;;;;;;4990940;28;87083;-43
2023/11/02 14:23:53;;;;;;;;;;;14.10;64.10;;;;;;4994132;28;88656;-43
2023/11/02 14:26:18;;;;;;;;;;;14.10;64.00;;;;;;4993082;28;88173;-42